Time;durP1;ratioP1;P1;durP2;ratioP2;P2;SDS_P1;SDS_P2;PMS_P1;PMS_P2;Temp;Humidity;BMP_temperature;BMP_pressure;BME280_temperature;BME280_humidity;BME280_pressure;Samples;Min_cycle;Max_cycle;Signal;HPM_P1;HPM_P2
2022/06/06 00:01:13;;;;;;;10.63;8.25;;;16.30;99.90;;;;;;5055062;28;20046;-82
2022/06/06 00:03:40;;;;;;;12.18;9.20;;;16.30;99.90;;;;;;5075699;28;20075;-81
2022/06/06 00:06:17;;;;;;;14.73;9.18;;;16.30;99.90;;;;;;5071594;28;20028;-83
2022/06/06 00:08:43;;;;;;;11.60;9.60;;;16.30;99.90;;;;;;5071011;28;20110;-83
2022/06/06 00:11:10;;;;;;;12.88;10.05;;;16.30;99.90;;;;;;5071019;28;20048;-82
2022/06/06 00:13:43;;;;;;;15.20;10.13;;;16.30;99.90;;;;;;5075160;28;20062;-82
2022/06/06 00:16:09;;;;;;;13.68;10.02;;;16.20;99.90;;;;;;5087593;28;20047;-82
2022/06/06 00:18:37;;;;;;;13.85;10.27;;;16.20;99.90;;;;;;5087639;28;20048;-81
2022/06/06 00:21:05;;;;;;;14.10;10.77;;;16.10;99.90;;;;;;5054118;28;20082;-81
2022/06/06 00:23:30;;;;;;;14.60;10.38;;;16.10;99.90;;;;;;5072909;28;20047;-81
2022/06/06 00:25:57;;;;;;;14.10;9.95;;;16.10;99.90;;;;;;5072299;28;20041;-82
2022/06/06 00:28:22;;;;;;;;;;;16.10;99.90;;;;;;5054675;28;20045;-82
2022/06/06 00:30:48;;;;;;;15.38;11.18;;;16.00;99.90;;;;;;5071096;28;20272;-81
2022/06/06 00:35:59;;;;;;;13.27;9.68;;;16.00;99.90;;;;;;5073681;28;20154;-83
2022/06/06 00:38:25;;;;;;;14.60;10.70;;;16.00;99.90;;;;;;5070653;28;20047;-82
2022/06/06 00:40:51;;;;;;;17.08;11.05;;;16.00;99.90;;;;;;5038117;28;20500;-83
2022/06/06 00:43:18;;;;;;;12.95;10.10;;;16.00;99.90;;;;;;5071825;28;20040;-83
2022/06/06 00:45:47;;;;;;;14.25;10.85;;;16.00;99.90;;;;;;5072517;28;20591;-83
2022/06/06 00:48:15;;;;;;;13.30;10.40;;;16.00;99.90;;;;;;5072414;28;20045;-83
2022/06/06 00:51:11;;;;;;;14.40;10.25;;;16.00;99.90;;;;;;5073679;28;20048;-83
2022/06/06 00:53:42;;;;;;;14.02;10.65;;;16.00;99.90;;;;;;5057771;28;20053;-83
2022/06/06 00:56:18;;;;;;;14.93;10.88;;;15.90;99.90;;;;;;5075962;28;20063;-82
2022/06/06 00:58:47;;;;;;;16.02;11.23;;;16.00;99.90;;;;;;5074914;28;20040;-83
2022/06/06 01:01:13;;;;;;;17.17;11.40;;;15.90;99.90;;;;;;5076518;28;20037;-83
2022/06/06 01:03:40;;;;;;;16.50;11.07;;;15.90;99.90;;;;;;5060129;28;20119;-83
2022/06/06 01:06:10;;;;;;;18.38;12.57;;;16.00;99.90;;;;;;5063526;28;20046;-82
2022/06/06 01:08:38;;;;;;;18.20;12.48;;;15.90;99.90;;;;;;5079441;28;20123;-83
2022/06/06 01:11:04;;;;;;;16.75;11.57;;;15.90;99.90;;;;;;5079715;28;20055;-82
2022/06/06 01:13:32;;;;;;;16.30;11.80;;;15.90;99.90;;;;;;5080209;28;20493;-82
2022/06/06 01:16:26;;;;;;;21.80;12.73;;;15.90;99.90;;;;;;5080788;28;20040;-83
2022/06/06 01:19:23;;;;;;;15.93;10.60;;;15.90;99.90;;;;;;5079498;28;20056;-82
2022/06/06 01:22:03;;;;;;;14.48;10.60;;;15.80;99.90;;;;;;5063087;28;20043;-82
2022/06/06 01:24:40;;;;;;;17.65;11.15;;;15.80;99.90;;;;;;5081089;28;20044;-82
2022/06/06 01:27:27;;;;;;;18.25;10.35;;;15.70;99.90;;;;;;5063274;28;20037;-82
2022/06/06 01:29:59;;;;;;;15.40;10.15;;;15.70;99.90;;;;;;5079668;28;20526;-83
2022/06/06 01:32:27;;;;;;;18.17;11.13;;;15.60;99.90;;;;;;5061736;28;20047;-83
2022/06/06 01:34:54;;;;;;;17.13;11.65;;;15.60;99.90;;;;;;5078030;28;20074;-82
2022/06/06 01:37:32;;;;;;;18.27;12.02;;;15.50;99.90;;;;;;5078193;28;20052;-82
2022/06/06 01:40:00;;;;;;;14.77;10.70;;;15.50;99.90;;;;;;5077985;28;20445;-82
2022/06/06 01:42:43;;;;;;;18.65;12.13;;;15.40;99.90;;;;;;5082108;28;20036;-82
2022/06/06 01:45:17;;;;;;;19.33;11.50;;;15.30;99.90;;;;;;5082351;28;20618;-82
2022/06/06 01:47:51;;;;;;;21.30;10.70;;;15.30;99.90;;;;;;5079212;28;20044;-82
2022/06/06 01:50:18;;;;;;;17.23;10.90;;;15.30;99.90;;;;;;5077283;28;20477;-82
2022/06/06 01:52:57;;;;;;;16.13;10.50;;;15.20;99.90;;;;;;5058320;28;20047;-82
2022/06/06 01:55:25;;;;;;;15.15;10.02;;;15.20;99.90;;;;;;5056841;28;20052;-81
2022/06/06 01:57:55;;;;;;;15.88;10.15;;;15.20;99.90;;;;;;5073721;28;20052;-81
2022/06/06 02:00:21;;;;;;;16.95;9.32;;;15.20;99.90;;;;;;5077834;28;20063;-82
2022/06/06 02:02:48;;;;;;;12.60;9.10;;;15.10;99.90;;;;;;5055424;28;20071;-81
2022/06/06 02:05:15;;;;;;;15.25;8.85;;;15.10;99.90;;;;;;5036985;28;20064;-81
2022/06/06 02:07:42;;;;;;;13.13;8.45;;;15.10;99.90;;;;;;5053128;28;20037;-82
2022/06/06 02:10:10;;;;;;;10.85;7.07;;;15.10;99.90;;;;;;5053746;28;20041;-82
2022/06/06 02:12:37;;;;;;;11.23;7.32;;;15.00;99.90;;;;;;5054210;28;20566;-81
2022/06/06 02:15:03;;;;;;;12.48;6.95;;;15.00;99.90;;;;;;5055230;28;20386;-83
2022/06/06 02:17:29;;;;;;;8.30;5.60;;;14.90;99.90;;;;;;5055627;28;20464;-83
2022/06/06 02:19:55;;;;;;;10.18;6.05;;;14.90;99.90;;;;;;5056575;28;20053;-83
2022/06/06 02:22:21;;;;;;;10.18;5.70;;;14.90;99.90;;;;;;5024365;28;20039;-82
2022/06/06 02:24:47;;;;;;;8.57;5.63;;;14.80;99.90;;;;;;5057307;23;20044;-82
2022/06/06 02:27:13;;;;;;;7.47;4.72;;;14.80;99.90;;;;;;5042431;28;20496;-82
2022/06/06 02:29:38;;;;;;;7.75;5.20;;;14.80;99.90;;;;;;5040639;28;20047;-82
2022/06/06 02:32:07;;;;;;;8.35;5.28;;;14.70;99.90;;;;;;5055916;28;20080;-82
2022/06/06 02:34:32;;;;;;;8.48;5.40;;;14.70;99.90;;;;;;5054167;28;20518;-82
2022/06/06 02:36:58;;;;;;;11.43;4.80;;;14.70;99.90;;;;;;5037099;28;20044;-82
2022/06/06 02:39:24;;;;;;;7.60;4.82;;;14.70;99.90;;;;;;5020010;28;20303;-82
2022/06/06 02:41:49;;;;;;;9.18;5.03;;;14.70;99.90;;;;;;5036716;28;20045;-84
2022/06/06 02:44:15;;;;;;;8.00;4.75;;;14.60;99.90;;;;;;5036580;28;20489;-83
2022/06/06 02:46:41;;;;;;;8.15;4.93;;;14.60;99.90;;;;;;5052817;28;20044;-83
2022/06/06 02:49:07;;;;;;;9.43;4.97;;;14.60;99.90;;;;;;5036445;28;20049;-82
2022/06/06 02:51:34;;;;;;;7.38;5.13;;;14.60;99.90;;;;;;5052859;28;20319;-82
2022/06/06 02:54:01;;;;;;;8.35;5.30;;;14.60;99.90;;;;;;5052578;28;20541;-82
2022/06/06 02:56:27;;;;;;;12.30;6.13;;;14.50;99.90;;;;;;5052665;28;20053;-82
2022/06/06 02:58:55;;;;;;;8.45;5.80;;;14.50;99.90;;;;;;5052855;28;20124;-82
2022/06/06 03:01:20;;;;;;;9.95;6.93;;;14.50;99.90;;;;;;5035981;28;20047;-82
2022/06/06 03:03:46;;;;;;;8.15;6.13;;;14.50;99.90;;;;;;5035828;28;20400;-82
2022/06/06 03:06:30;;;;;;;12.80;6.47;;;14.50;99.90;;;;;;5035862;28;20044;-82
2022/06/06 03:09:26;;;;;;;8.98;6.50;;;14.50;99.90;;;;;;5052305;28;20124;-82
2022/06/06 03:11:54;;;;;;;11.52;7.03;;;14.50;99.90;;;;;;5052732;28;20099;-82
2022/06/06 03:14:23;;;;;;;11.60;7.05;;;14.50;99.90;;;;;;5035947;28;20063;-82
2022/06/06 03:20:48;;;;;;;11.60;7.57;;;14.50;99.90;;;;;;5052246;28;20052;-82
2022/06/06 03:23:39;;;;;;;10.50;7.65;;;14.50;99.90;;;;;;5052003;28;20037;-82
2022/06/06 03:26:24;;;;;;;14.07;8.13;;;14.50;99.90;;;;;;5052147;28;20049;-82
2022/06/06 03:28:58;;;;;;;11.82;7.45;;;14.40;99.90;;;;;;5051686;28;20036;-81
2022/06/06 03:31:46;;;;;;;10.77;7.28;;;14.50;99.90;;;;;;5051901;28;20282;-82
2022/06/06 03:34:30;;;;;;;;;;;14.40;99.90;;;;;;5052526;28;20040;-81
2022/06/06 03:37:15;;;;;;;9.93;6.70;;;14.40;99.90;;;;;;5052330;28;19916;-82
2022/06/06 03:39:57;;;;;;;11.90;7.38;;;14.40;99.90;;;;;;5035263;28;20045;-82
2022/06/06 03:42:37;;;;;;;10.27;6.95;;;14.40;99.90;;;;;;5035151;28;20123;-81
2022/06/06 03:45:26;;;;;;;7.78;6.32;;;14.40;99.90;;;;;;5035480;28;20035;-82
2022/06/06 03:48:13;;;;;;;10.60;6.30;;;14.40;99.90;;;;;;5052014;28;20500;-82
2022/06/06 03:50:45;;;;;;;7.97;6.10;;;14.40;99.90;;;;;;5051594;28;20124;-82
2022/06/06 03:53:28;;;;;;;9.65;6.10;;;14.40;99.90;;;;;;5051665;28;20052;-82
2022/06/06 03:56:32;;;;;;;8.25;6.03;;;14.30;99.90;;;;;;5051855;28;20043;-82
2022/06/06 03:58:59;;;;;;;9.98;5.78;;;14.40;99.90;;;;;;5029800;28;20131;-82
2022/06/06 04:01:25;;;;;;;10.13;5.82;;;14.30;99.90;;;;;;5051483;28;20052;-82
2022/06/06 04:03:52;;;;;;;8.90;5.78;;;14.70;99.90;;;;;;5035375;28;20037;-82
2022/06/06 04:06:19;;;;;;;7.93;5.32;;;14.30;99.90;;;;;;5051556;28;20044;-81
2022/06/06 04:08:45;;;;;;;7.60;5.00;;;14.30;99.90;;;;;;5051677;28;20447;-83
2022/06/06 04:11:30;;;;;;;7.35;5.03;;;14.30;99.90;;;;;;5034977;28;20067;-82
2022/06/06 04:14:17;;;;;;;7.82;5.55;;;14.30;99.90;;;;;;5034918;28;20044;-82
2022/06/06 04:16:52;;;;;;;;;;;14.30;99.90;;;;;;5035160;28;20063;-82
2022/06/06 04:19:43;;;;;;;5.55;4.65;;;14.30;99.90;;;;;;5051604;28;19923;-82
2022/06/06 04:22:21;;;;;;;7.82;4.80;;;14.30;99.90;;;;;;5051751;28;20102;-82
2022/06/06 04:25:01;;;;;;;5.95;4.80;;;14.30;99.90;;;;;;5051640;28;20049;-83
2022/06/06 04:27:52;;;;;;;5.20;4.18;;;14.30;99.90;;;;;;5052341;28;20041;-82
2022/06/06 04:30:45;;;;;;;5.63;4.20;;;14.30;99.90;;;;;;5053070;28;20044;-82
2022/06/06 04:34:03;;;;;;;9.05;4.43;;;14.30;99.90;;;;;;5051500;28;20045;-82
2022/06/06 04:36:38;;;;;;;6.13;3.72;;;14.30;99.90;;;;;;5046633;28;20057;-82
2022/06/06 04:39:10;;;;;;;4.68;3.83;;;14.30;99.90;;;;;;5051446;28;20080;-82
2022/06/06 04:41:53;;;;;;;4.05;3.20;;;14.30;99.90;;;;;;5057974;28;20102;-82
2022/06/06 04:44:22;;;;;;;4.10;2.97;;;14.30;99.90;;;;;;5039278;28;20045;-82
2022/06/06 04:46:54;;;;;;;3.80;3.00;;;14.30;99.90;;;;;;5056106;28;20044;-82
2022/06/06 04:49:21;;;;;;;2.90;2.38;;;14.40;99.90;;;;;;5055964;28;20041;-81
2022/06/06 04:51:48;;;;;;;3.65;3.00;;;14.40;99.90;;;;;;5039265;28;20130;-82
2022/06/06 04:54:17;;;;;;;4.18;2.80;;;14.40;99.90;;;;;;5056083;28;20053;-82
2022/06/06 04:56:45;;;;;;;4.07;3.15;;;14.40;99.90;;;;;;5039794;28;20041;-83
2022/06/06 04:59:12;;;;;;;4.22;2.70;;;14.40;99.90;;;;;;5057016;28;20048;-81
2022/06/06 05:01:41;;;;;;;3.55;2.60;;;14.40;99.90;;;;;;5039164;28;20124;-82
2022/06/06 05:04:06;;;;;;;5.13;2.95;;;14.40;99.90;;;;;;5055296;28;20493;-82
2022/06/06 05:06:41;;;;;;;3.10;2.10;;;14.50;99.90;;;;;;5021889;28;20099;-83
2022/06/06 05:09:22;;;;;;;3.78;2.80;;;14.40;99.90;;;;;;5038571;28;20509;-83
2022/06/06 05:12:11;;;;;;;5.13;3.03;;;14.40;99.90;;;;;;5054686;28;20443;-83
2022/06/06 05:14:52;;;;;;;4.93;3.70;;;14.40;99.90;;;;;;5054472;28;20044;-83
2022/06/06 05:17:48;;;;;;;6.82;3.80;;;14.40;99.90;;;;;;5038034;28;20045;-82
2022/06/06 05:20:17;;;;;;;6.60;4.22;;;14.40;99.90;;;;;;5054400;28;20045;-83
2022/06/06 05:22:48;;;;;;;6.93;4.63;;;14.40;99.90;;;;;;5054172;28;20044;-82
2022/06/06 05:25:23;;;;;;;8.40;5.07;;;14.40;99.90;;;;;;5054213;28;20092;-81
2022/06/06 05:28:02;;;;;;;6.45;4.45;;;14.30;99.90;;;;;;5054152;28;20124;-82
2022/06/06 05:30:45;;;;;;;8.45;4.32;;;14.30;99.90;;;;;;5054463;28;20048;-83
2022/06/06 05:33:33;;;;;;;8.55;5.28;;;14.30;99.90;;;;;;5037784;28;20049;-83
2022/06/06 05:36:11;;;;;;;8.60;5.25;;;14.30;99.90;;;;;;5059951;28;20508;-82
2022/06/06 05:38:45;;;;;;;9.43;5.75;;;14.20;99.90;;;;;;5042814;28;20052;-83
2022/06/06 05:41:20;;;;;;;9.98;6.20;;;14.20;99.90;;;;;;5037520;28;20033;-82
2022/06/06 05:44:04;;;;;;;13.77;6.60;;;14.20;99.90;;;;;;5058431;28;20040;-83
2022/06/06 05:46:38;;;;;;;10.82;5.70;;;14.10;99.90;;;;;;5037487;28;20037;-83
2022/06/06 05:49:26;;;;;;;11.25;6.10;;;14.10;99.90;;;;;;5054386;28;20509;-83
2022/06/06 05:52:27;;;;;;;9.75;5.63;;;14.10;99.90;;;;;;5053580;28;20048;-83
2022/06/06 05:55:23;;;;;;;11.20;5.53;;;14.20;99.90;;;;;;5037422;28;20056;-83
2022/06/06 05:58:23;;;;;;;11.15;5.50;;;14.10;99.90;;;;;;5054557;28;20480;-81
2022/06/06 06:01:07;;;;;;;9.25;5.03;;;14.20;99.90;;;;;;5038097;28;20037;-82
2022/06/06 06:03:53;;;;;;;9.82;5.93;;;14.20;99.90;;;;;;5054024;28;20080;-82
2022/06/06 06:06:32;;;;;;;9.68;4.93;;;14.10;99.90;;;;;;5054720;28;20044;-83
2022/06/06 06:09:31;;;;;;;9.88;5.13;;;14.10;99.90;;;;;;5055122;28;20041;-82
2022/06/06 06:12:18;;;;;;;10.80;5.30;;;14.10;99.90;;;;;;5037225;28;20094;-83
2022/06/06 06:14:52;;;;;;;10.30;5.50;;;14.10;99.90;;;;;;5037409;28;20036;-82
2022/06/06 06:17:24;;;;;;;11.85;6.35;;;14.10;99.90;;;;;;5054551;28;20443;-84
2022/06/06 06:19:59;;;;;;;13.10;6.75;;;14.00;99.90;;;;;;5053815;28;20416;-83
2022/06/06 06:22:28;;;;;;;11.57;6.65;;;14.00;99.90;;;;;;5054083;28;20056;-82
2022/06/06 06:24:59;;;;;;;12.07;6.72;;;14.00;99.90;;;;;;5053155;28;20059;-82
2022/06/06 06:27:26;;;;;;;10.13;6.00;;;13.90;99.90;;;;;;5053394;28;20087;-83
2022/06/06 06:29:52;;;;;;;10.05;5.38;;;13.90;99.90;;;;;;5020541;28;20051;-83
2022/06/06 06:32:32;;;;;;;7.40;4.87;;;14.00;99.90;;;;;;5036986;28;20519;-82
2022/06/06 06:35:15;;;;;;;9.15;5.00;;;14.00;99.90;;;;;;5036872;28;20284;-82
2022/06/06 06:38:10;;;;;;;7.40;4.18;;;14.10;99.90;;;;;;5053580;28;20463;-82
2022/06/06 06:40:58;;;;;;;11.35;5.03;;;14.20;99.90;;;;;;5053265;28;20049;-82
2022/06/06 06:43:50;;;;;;;8.05;4.18;;;14.30;99.90;;;;;;5036774;28;20457;-82
2022/06/06 06:46:40;;;;;;;5.80;3.13;;;14.40;99.90;;;;;;5055434;28;20033;-83
2022/06/06 06:49:11;;;;;;;5.05;3.10;;;14.40;99.90;;;;;;5059304;28;20156;-83
2022/06/06 06:52:01;;;;;;;5.32;3.50;;;14.40;99.90;;;;;;5053252;28;20047;-83
2022/06/06 06:54:41;;;;;;;5.88;3.30;;;14.40;99.90;;;;;;5036438;28;20041;-82
2022/06/06 06:57:46;;;;;;;4.28;3.00;;;14.40;99.90;;;;;;5036847;28;20095;-82
2022/06/06 07:00:23;;;;;;;4.88;3.08;;;14.40;99.90;;;;;;5036697;28;20550;-83
2022/06/06 07:09:33;;;;;;;5.60;2.85;;;14.60;99.90;;;;;;5053156;28;20400;-82
2022/06/06 07:12:18;;;;;;;4.90;3.08;;;14.60;99.90;;;;;;5036216;28;20123;-82
2022/06/06 07:14:46;;;;;;;6.45;2.90;;;14.60;99.90;;;;;;5035926;28;20051;-82
2022/06/06 07:17:14;;;;;;;8.05;3.03;;;14.60;99.90;;;;;;5035527;28;20044;-82
2022/06/06 07:19:48;;;;;;;4.88;2.97;;;14.60;99.90;;;;;;5052062;28;20041;-83
2022/06/06 07:22:16;;;;;;;5.35;3.00;;;14.60;99.90;;;;;;5052643;28;20048;-83
2022/06/06 07:24:43;;;;;;;4.75;2.63;;;14.60;99.90;;;;;;5051879;28;20084;-82
2022/06/06 07:27:09;;;;;;;;;;;14.60;99.90;;;;;;5052709;28;20041;-82
2022/06/06 07:29:35;;;;;;;7.90;3.20;;;14.60;99.90;;;;;;5052140;28;19924;-82
2022/06/06 07:32:10;;;;;;;7.03;3.67;;;14.70;99.90;;;;;;5052241;28;20140;-83
2022/06/06 07:34:36;;;;;;;4.47;2.78;;;14.80;99.90;;;;;;5035643;28;20094;-83
2022/06/06 07:37:48;;;;;;;6.43;3.72;;;14.80;99.90;;;;;;5052311;28;20467;-83
2022/06/06 07:40:47;;;;;;;4.57;2.83;;;14.90;99.90;;;;;;5015909;28;20049;-82
2022/06/06 07:43:25;;;;;;;5.07;2.75;;;15.10;99.90;;;;;;5039790;28;20041;-82
2022/06/06 07:45:54;;;;;;;6.65;2.83;;;15.20;99.90;;;;;;5035256;28;20037;-82
2022/06/06 07:48:29;;;;;;;3.67;2.30;;;15.20;99.90;;;;;;5052146;28;20575;-82
2022/06/06 07:51:13;;;;;;;5.15;2.40;;;15.30;99.90;;;;;;5052199;28;20053;-82
2022/06/06 07:54:05;;;;;;;8.27;2.60;;;15.40;99.90;;;;;;5052094;28;20431;-82
2022/06/06 07:56:49;;;;;;;5.00;2.30;;;15.60;99.90;;;;;;5035136;28;20045;-82
2022/06/06 07:59:33;;;;;;;4.85;2.50;;;16.00;99.90;;;;;;5052161;28;20084;-82
2022/06/06 08:02:15;;;;;;;4.45;1.92;;;16.20;99.90;;;;;;5051874;28;20029;-81
2022/06/06 08:04:59;;;;;;;7.43;2.70;;;16.40;99.90;;;;;;5034606;28;20045;-81
2022/06/06 08:08:08;;;;;;;4.82;2.55;;;16.50;99.90;;;;;;5035544;28;20045;-82
2022/06/06 08:10:45;;;;;;;6.05;2.45;;;16.40;99.90;;;;;;5034764;28;20044;-82
2022/06/06 08:13:20;;;;;;;6.32;2.50;;;16.30;99.90;;;;;;5035614;28;20179;-82
2022/06/06 08:16:11;;;;;;;7.00;2.28;;;16.20;99.90;;;;;;5054804;28;20040;-82
2022/06/06 08:19:15;;;;;;;5.45;2.50;;;16.10;99.90;;;;;;5051730;28;20090;-83
2022/06/06 08:21:43;;;;;;;5.25;2.75;;;16.10;99.90;;;;;;5034438;28;20091;-82
2022/06/06 08:24:23;;;;;;;4.55;2.78;;;16.00;99.90;;;;;;5034411;28;20136;-82
2022/06/06 08:26:51;;;;;;;6.63;3.10;;;16.20;99.90;;;;;;5034696;28;20107;-82
2022/06/06 08:29:17;;;;;;;8.10;3.17;;;16.40;99.90;;;;;;5034960;28;20041;-82
2022/06/06 08:31:44;;;;;;;6.53;3.20;;;16.70;99.90;;;;;;5034539;28;20052;-82
2022/06/06 08:34:11;;;;;;;5.85;3.13;;;16.90;99.90;;;;;;5035303;28;20568;-82
2022/06/06 08:37:08;;;;;;;6.22;2.92;;;17.40;99.90;;;;;;5051234;28;20083;-82
2022/06/06 08:40:00;;;;;;;6.15;3.15;;;17.60;99.90;;;;;;5035171;28;20504;-82
2022/06/06 08:42:56;;;;;;;6.80;3.47;;;17.60;99.90;;;;;;5051099;28;20087;-81
2022/06/06 08:45:32;;;;;;;7.00;3.15;;;17.50;99.90;;;;;;5051655;28;20041;-82
2022/06/06 08:48:03;;;;;;;5.30;3.08;;;17.50;99.90;;;;;;5034687;28;20041;-82
2022/06/06 08:51:04;;;;;;;6.90;3.30;;;17.90;99.90;;;;;;5052032;28;20457;-81
2022/06/06 08:53:50;;;;;;;6.35;2.92;;;18.40;99.90;;;;;;5035106;28;20037;-81
2022/06/06 08:56:34;;;;;;;7.10;2.85;;;18.70;99.90;;;;;;5051478;28;20127;-82
2022/06/06 08:59:18;;;;;;;5.38;2.60;;;18.70;99.90;;;;;;5062862;28;20106;-81
2022/06/06 09:02:26;;;;;;;5.22;2.47;;;18.50;99.90;;;;;;5051224;28;20095;-82
2022/06/06 09:05:01;;;;;;;4.68;2.28;;;18.20;99.90;;;;;;5040548;28;20095;-82
2022/06/06 09:08:00;;;;;;;6.25;1.95;;;18.10;99.90;;;;;;5055593;28;20480;-83
2022/06/06 09:10:47;;;;;;;4.15;1.98;;;18.10;99.90;;;;;;5051367;28;20036;-82
2022/06/06 09:13:31;;;;;;;5.70;2.00;;;18.20;99.90;;;;;;5034601;28;20132;-82
2022/06/06 09:16:25;;;;;;;3.53;1.50;;;18.30;99.90;;;;;;5038256;28;20109;-82
2022/06/06 09:19:06;;;;;;;5.03;1.73;;;18.20;99.90;;;;;;5051014;28;20489;-82
2022/06/06 09:21:53;;;;;;;4.88;1.70;;;18.10;99.90;;;;;;5035067;28;20079;-82
2022/06/06 09:24:41;;;;;;;4.70;2.20;;;18.00;99.90;;;;;;5041310;28;20049;-81
2022/06/06 09:27:10;;;;;;;;;;;17.80;99.90;;;;;;5054075;28;20037;-82
2022/06/06 09:29:44;;;;;;;5.22;2.05;;;17.70;99.90;;;;;;5037769;28;19916;-82
2022/06/06 09:32:49;;;;;;;3.10;1.60;;;17.70;99.90;;;;;;5037982;28;20041;-82
2022/06/06 09:35:35;;;;;;;5.03;1.80;;;18.10;99.90;;;;;;5059355;28;20049;-81
2022/06/06 09:38:14;;;;;;;5.38;1.73;;;18.70;99.90;;;;;;5054381;28;20076;-81
2022/06/06 09:40:59;;;;;;;5.00;1.30;;;18.90;99.90;;;;;;5037185;28;20080;-81
2022/06/06 09:43:40;;;;;;;3.42;1.40;;;18.80;99.90;;;;;;5054357;28;20566;-81
2022/06/06 09:46:24;;;;;;;7.93;2.10;;;18.60;99.90;;;;;;5054481;28;20439;-82
2022/06/06 09:49:14;;;;;;;3.53;1.65;;;18.30;99.90;;;;;;5054863;28;20503;-82
2022/06/06 09:51:54;;;;;;;4.18;1.50;;;18.30;99.90;;;;;;5037971;28;20476;-82
2022/06/06 10:01:16;;;;;;;3.20;1.40;;;19.70;99.90;;;;;;5056385;28;20052;-82
2022/06/06 10:04:06;;;;;;;3.47;1.27;;;20.10;99.90;;;;;;5053465;28;20055;-82
2022/06/06 10:07:10;;;;;;;3.67;1.30;;;20.20;99.90;;;;;;5053647;28;20401;-82
2022/06/06 10:10:03;;;;;;;4.65;1.00;;;20.40;99.90;;;;;;5053143;28;20033;-82
2022/06/06 10:12:53;;;;;;;6.22;0.90;;;20.70;99.90;;;;;;5037052;28;20045;-82
2022/06/06 10:15:37;;;;;;;5.70;1.13;;;21.00;99.90;;;;;;5036812;28;20043;-82
2022/06/06 10:18:09;;;;;;;2.80;1.42;;;21.20;99.90;;;;;;5055872;28;20033;-82
2022/06/06 10:20:43;;;;;;;3.33;1.00;;;21.40;99.90;;;;;;5055471;28;20563;-82
2022/06/06 10:23:24;;;;;;;4.63;1.10;;;21.20;99.90;;;;;;5053420;28;20095;-81
2022/06/06 10:26:21;;;;;;;4.38;1.20;;;21.10;99.90;;;;;;5052875;28;20041;-82
2022/06/06 10:29:00;;;;;;;4.03;1.07;;;20.80;99.90;;;;;;5052785;28;20127;-81
2022/06/06 10:31:35;;;;;;;5.22;1.15;;;20.40;99.90;;;;;;5052907;28;20128;-81
2022/06/06 10:34:40;;;;;;;2.72;0.93;;;20.10;99.90;;;;;;5052937;28;20045;-82
2022/06/06 10:37:58;;;;;;;2.47;0.90;;;20.30;99.90;;;;;;5053123;28;20044;-81
2022/06/06 10:40:45;;;;;;;7.22;1.10;;;20.30;99.90;;;;;;5020495;28;20104;-82
2022/06/06 10:43:58;;;;;;;4.75;0.77;;;20.40;99.90;;;;;;5052635;28;20095;-81
2022/06/06 10:47:10;;;;;;;3.97;0.80;;;20.60;99.90;;;;;;4983969;28;20073;-81
2022/06/06 10:49:51;;;;;;;2.30;0.75;;;20.20;99.90;;;;;;5009539;28;20040;-82
2022/06/06 10:52:49;;;;;;;2.33;0.82;;;20.10;99.90;;;;;;5052355;28;20041;-82
2022/06/06 10:55:45;;;;;;;3.40;0.70;;;19.90;99.90;;;;;;5052418;28;20090;-82
2022/06/06 10:58:42;;;;;;;5.35;0.70;;;19.80;99.90;;;;;;5052284;28;20041;-81
2022/06/06 11:01:14;;;;;;;3.38;0.57;;;20.00;99.90;;;;;;5052575;28;20056;-82
2022/06/06 11:04:21;;;;;;;1.75;0.50;;;20.00;99.90;;;;;;5057460;28;20049;-81
2022/06/06 11:07:19;;;;;;;3.28;0.80;;;20.00;99.90;;;;;;5052150;28;20045;-81
2022/06/06 11:10:06;;;;;;;7.18;0.80;;;19.80;99.90;;;;;;5035426;28;20045;-82
2022/06/06 11:13:06;;;;;;;5.97;0.70;;;19.70;99.90;;;;;;5051972;28;20041;-82
2022/06/06 11:15:56;;;;;;;5.28;0.70;;;19.70;99.90;;;;;;5052092;28;20048;-81
2022/06/06 11:18:50;;;;;;;2.10;0.57;;;19.80;99.90;;;;;;5005449;28;20136;-81
2022/06/06 11:21:52;;;;;;;3.08;0.60;;;19.70;99.90;;;;;;5052269;28;20493;-82
2022/06/06 11:24:36;;;;;;;4.07;0.70;;;19.40;99.90;;;;;;5051753;28;20136;-81
2022/06/06 11:27:44;;;;;;;3.30;1.00;;;19.20;99.90;;;;;;5051928;28;20135;-82
2022/06/06 11:30:21;;;;;;;2.40;0.90;;;19.30;99.90;;;;;;5051830;28;20140;-81
2022/06/06 11:33:12;;;;;;;3.42;0.98;;;19.40;99.90;;;;;;5051675;28;20052;-82
2022/06/06 11:35:55;;;;;;;9.40;1.45;;;19.00;99.90;;;;;;5035092;28;20404;-82
2022/06/06 11:38:51;;;;;;;1.98;1.00;;;18.80;99.90;;;;;;5040139;28;20090;-81
2022/06/06 11:41:33;;;;;;;4.43;1.30;;;18.60;99.90;;;;;;5018233;28;20057;-81
2022/06/06 11:44:11;;;;;;;4.95;1.20;;;18.60;99.90;;;;;;5051955;28;20052;-81
2022/06/06 11:46:40;;;;;;;2.10;0.73;;;18.60;99.90;;;;;;5040362;28;20072;-81
2022/06/06 11:49:13;;;;;;;2.47;0.90;;;18.50;99.90;;;;;;5054187;28;20451;-83
2022/06/06 11:51:58;;;;;;;2.38;1.30;;;18.50;99.90;;;;;;5060978;28;20045;-81
2022/06/06 11:54:48;;;;;;;2.42;1.20;;;18.50;99.90;;;;;;5058578;28;20515;-82
2022/06/06 11:57:32;;;;;;;3.88;1.50;;;18.70;99.90;;;;;;5051673;28;20053;-82
2022/06/06 12:00:13;;;;;;;3.95;1.30;;;19.10;99.90;;;;;;5051348;28;20045;-82
2022/06/06 12:03:15;;;;;;;2.72;1.02;;;19.20;99.90;;;;;;5050916;28;20037;-82
2022/06/06 12:06:15;;;;;;;3.05;0.82;;;19.10;99.90;;;;;;5039248;28;20124;-81
2022/06/06 12:09:23;;;;;;;2.65;1.20;;;19.00;99.90;;;;;;5051055;28;20068;-81
2022/06/06 12:12:01;;;;;;;;;;;18.80;99.90;;;;;;5054383;28;20037;-81
2022/06/06 12:14:45;;;;;;;3.58;1.08;;;18.60;99.90;;;;;;5051192;28;19923;-81
2022/06/06 12:17:29;;;;;;;3.08;1.02;;;18.70;99.90;;;;;;5051967;28;20063;-81
2022/06/06 12:20:26;;;;;;;3.95;1.33;;;18.80;99.90;;;;;;5059719;28;20041;-81
2022/06/06 12:23:16;;;;;;;3.92;1.27;;;18.90;99.90;;;;;;5054447;28;20130;-81
2022/06/06 12:25:58;;;;;;;8.02;1.17;;;18.90;99.90;;;;;;5051254;28;20493;-81
2022/06/06 12:29:01;;;;;;;4.00;1.30;;;19.20;99.90;;;;;;5034285;28;20094;-81
2022/06/06 12:31:56;;;;;;;4.57;1.25;;;19.20;99.90;;;;;;5055695;28;20092;-82
2022/06/06 12:34:33;;;;;;;2.75;1.23;;;19.20;99.90;;;;;;5051187;28;20091;-81
2022/06/06 12:37:47;;;;;;;7.78;1.10;;;19.10;99.90;;;;;;5051222;28;20413;-81
2022/06/06 12:40:41;;;;;;;8.38;1.85;;;18.60;99.90;;;;;;5037947;28;20119;-81
2022/06/06 12:43:50;;;;;;;6.30;2.22;;;18.10;99.90;;;;;;5055229;28;20056;-81
2022/06/06 12:46:38;;;;;;;6.50;2.50;;;17.60;99.90;;;;;;5061456;28;20033;-81
2022/06/06 12:49:35;;;;;;;4.68;2.13;;;17.30;99.90;;;;;;5051988;28;20056;-82
2022/06/06 12:52:25;;;;;;;2.97;1.80;;;17.10;99.90;;;;;;5035266;28;20501;-83
2022/06/06 12:57:41;;;;;;;4.60;1.73;;;17.00;99.90;;;;;;5051221;28;20052;-81
2022/06/06 13:00:10;;;;;;;2.47;1.58;;;17.00;99.90;;;;;;5051380;28;20075;-82
2022/06/06 13:03:06;;;;;;;4.97;1.35;;;16.90;99.90;;;;;;5053579;28;20037;-81
2022/06/06 13:05:53;;;;;;;2.58;1.00;;;16.90;99.90;;;;;;5054753;28;20037;-81
2022/06/06 13:08:37;;;;;;;;;;;16.80;99.90;;;;;;5056394;28;20047;-81
2022/06/06 13:11:35;;;;;;;3.97;1.75;;;16.70;99.90;;;;;;5059533;28;19921;-81
2022/06/06 13:14:13;;;;;;;;;;;16.40;99.90;;;;;;5014373;28;20469;-82
2022/06/06 13:17:10;;;;;;;4.25;1.70;;;16.20;99.90;;;;;;5057855;28;19928;-82
2022/06/06 13:20:11;;;;;;;1.88;1.40;;;16.20;99.90;;;;;;5045622;28;20639;-81
2022/06/06 13:22:55;;;;;;;5.03;2.00;;;16.30;99.90;;;;;;5054463;28;20381;-82
2022/06/06 13:25:28;;;;;;;5.18;1.67;;;16.40;99.90;;;;;;5054436;28;20056;-82
2022/06/06 13:28:01;;;;;;;4.70;1.80;;;16.40;99.90;;;;;;5054493;28;20535;-82
2022/06/06 13:30:41;;;;;;;3.88;1.70;;;16.50;99.90;;;;;;5054421;28;20626;-82
2022/06/06 13:33:23;;;;;;;3.22;1.45;;;16.50;99.90;;;;;;5060446;28;20045;-82
2022/06/06 13:36:17;;;;;;;4.35;1.55;;;16.50;99.90;;;;;;5054156;28;20111;-81
2022/06/06 13:38:43;;;;;;;5.82;2.15;;;16.50;99.90;;;;;;5037495;28;20133;-81
2022/06/06 13:41:09;;;;;;;;;;;16.50;99.90;;;;;;5065074;28;20047;-81
2022/06/06 13:43:45;;;;;;;8.68;3.00;;;16.40;99.90;;;;;;5055823;28;20007;-81
2022/06/06 13:46:38;;;;;;;5.03;2.60;;;16.20;99.90;;;;;;5037299;28;20072;-80
2022/06/06 13:49:26;;;;;;;4.90;2.47;;;15.80;99.90;;;;;;5046804;28;20056;-80
2022/06/06 13:52:10;;;;;;;6.57;3.15;;;15.60;99.90;;;;;;5054005;28;20134;-80
2022/06/06 13:54:39;;;;;;;7.22;3.55;;;15.40;99.90;;;;;;5054178;28;20055;-80
2022/06/06 13:57:24;;;;;;;7.07;3.67;;;15.30;99.90;;;;;;5054625;28;20041;-81
2022/06/06 14:00:02;;;;;;;6.10;4.00;;;15.20;99.90;;;;;;5054057;28;20256;-80
2022/06/06 14:03:05;;;;;;;6.10;4.07;;;15.10;99.90;;;;;;5061175;28;20041;-81
2022/06/06 14:05:35;;;;;;;5.43;4.60;;;15.10;99.90;;;;;;5053788;28;20037;-81
2022/06/06 14:08:07;;;;;;;9.35;4.65;;;15.10;99.90;;;;;;5038827;28;20033;-81
2022/06/06 14:10:53;;;;;;;9.15;5.20;;;15.10;99.90;;;;;;5053704;28;20064;-81
2022/06/06 14:13:37;;;;;;;7.05;4.95;;;15.10;99.90;;;;;;5054011;28;20091;-81
2022/06/06 14:16:31;;;;;;;6.22;4.90;;;15.10;99.90;;;;;;5055056;28;20049;-81